createdAt,value
2023-01-19T00:00:54.487Z,96907.56
2023-01-19T00:03:23.993Z,96894.97
2023-01-19T00:05:52.890Z,96895.81
2023-01-19T00:08:21.135Z,96891.59
2023-01-19T00:10:52.318Z,96889.88
2023-01-19T00:13:20.754Z,96890.75
2023-01-19T00:15:48.876Z,96899.16
2023-01-19T00:18:16.940Z,96890.75
2023-01-19T00:20:48.063Z,96893.28
2023-01-19T00:23:17.464Z,96878.13
2023-01-19T00:25:46.258Z,96871.41
2023-01-19T00:28:17.106Z,96888.19
2023-01-19T00:30:45.996Z,96894.94
2023-01-19T00:33:15.401Z,96894.06
2023-01-19T00:35:44.533Z,96882.25
2023-01-19T00:38:14.110Z,96897.38
2023-01-19T00:40:42.260Z,96896.56
2023-01-19T00:43:10.370Z,96897.41
2023-01-19T00:45:38.471Z,96899.06
2023-01-19T00:48:07.534Z,96891.50
2023-01-19T00:50:35.837Z,96906.66
2023-01-19T00:53:04.213Z,96902.44
2023-01-19T00:55:34.585Z,96904.97
2023-01-19T00:58:02.992Z,96910.00
2023-01-19T01:00:31.250Z,96908.34
2023-01-19T01:02:59.744Z,96909.16
2023-01-19T01:05:27.928Z,96920.88
2023-01-19T01:07:56.082Z,96918.38
2023-01-19T01:10:26.568Z,96920.03
2023-01-19T01:12:58.090Z,96929.28
2023-01-19T01:15:27.610Z,96934.25
2023-01-19T01:17:55.906Z,96945.19
2023-01-19T01:20:27.157Z,96944.38
2023-01-19T01:22:55.696Z,96954.38
2023-01-19T01:25:25.591Z,96958.53
2023-01-19T01:27:56.100Z,96959.34
2023-01-19T01:30:24.874Z,96965.22
2023-01-19T01:32:53.092Z,96969.41
2023-01-19T01:35:21.308Z,96967.69
2023-01-19T01:37:49.485Z,96966.06
2023-01-19T01:40:19.906Z,96973.59
2023-01-19T01:42:48.056Z,96973.53
2023-01-19T01:45:32.775Z,96974.38
2023-01-19T01:48:06.929Z,96984.38
2023-01-19T01:50:38.717Z,96986.88
2023-01-19T01:53:12.998Z,96986.84
2023-01-19T01:55:45.548Z,96978.47
2023-01-19T01:58:14.924Z,96973.31
2023-01-19T02:01:02.393Z,96979.22
2023-01-19T02:03:32.417Z,96977.44
2023-01-19T02:06:03.342Z,96972.41
2023-01-19T02:08:53.920Z,96980.81
2023-01-19T02:11:39.483Z,96978.31
2023-01-19T02:14:07.804Z,96972.56
2023-01-19T02:16:38.852Z,96971.63
2023-01-19T02:19:10.309Z,96974.97
2023-01-19T02:21:47.921Z,96969.16
2023-01-19T02:24:19.443Z,96970.00
2023-01-19T02:26:50.381Z,96961.69
2023-01-19T02:29:21.845Z,96966.78
2023-01-19T02:31:50.029Z,96973.50
2023-01-19T02:34:20.235Z,96970.88
2023-01-19T02:36:52.055Z,96973.47
2023-01-19T02:39:26.283Z,96980.19
2023-01-19T02:42:01.436Z,96984.31
2023-01-19T02:44:31.664Z,96978.31
2023-01-19T02:46:59.638Z,96979.09
2023-01-19T02:49:30.200Z,96984.94
2023-01-19T02:51:58.750Z,96984.06
2023-01-19T02:54:37.714Z,96991.53
2023-01-19T02:57:27.851Z,96992.34
2023-01-19T03:00:13.135Z,96995.81
2023-01-19T03:02:51.348Z,97001.53
2023-01-19T03:05:30.734Z,96998.94
2023-01-19T03:08:07.850Z,96980.28
2023-01-19T03:10:45.224Z,97000.53
2023-01-19T03:13:19.145Z,97001.47
2023-01-19T03:15:50.937Z,97014.19
2023-01-19T03:18:22.509Z,97010.91
2023-01-19T03:20:54.380Z,97006.59
2023-01-19T03:23:25.543Z,97010.59
2023-01-19T03:25:58.963Z,97003.78
2023-01-19T03:28:30.219Z,97013.13
2023-01-19T03:31:03.404Z,97022.31
2023-01-19T03:33:34.351Z,97019.63
2023-01-19T03:36:08.362Z,97011.22
2023-01-19T03:38:39.208Z,97016.34
2023-01-19T03:41:12.498Z,97014.63
2023-01-19T03:43:41.906Z,97024.00
2023-01-19T03:46:11.797Z,97029.00
2023-01-19T03:48:40.407Z,97021.44
2023-01-19T03:51:11.020Z,97029.69
2023-01-19T03:53:38.963Z,97037.25
2023-01-19T03:56:18.065Z,97038.00
2023-01-19T03:58:46.242Z,97042.09
2023-01-19T04:01:15.317Z,97033.81
2023-01-19T04:03:43.531Z,97030.41
2023-01-19T04:06:12.018Z,97034.44
2023-01-19T04:08:40.808Z,97040.34
2023-01-19T04:11:11.325Z,97045.47
2023-01-19T04:13:39.447Z,97045.47
2023-01-19T04:16:08.285Z,97041.28
2023-01-19T04:18:36.673Z,97045.47
2023-01-19T04:21:06.759Z,97032.84
2023-01-19T04:23:35.315Z,97032.09
2023-01-19T04:26:05.621Z,97036.38
2023-01-19T04:28:37.222Z,97031.28
2023-01-19T04:31:06.656Z,97035.38
2023-01-19T04:33:35.985Z,97040.31
2023-01-19T04:36:04.779Z,97028.53
2023-01-19T04:38:32.910Z,97039.41
2023-01-19T04:41:00.977Z,97040.28
2023-01-19T04:43:29.421Z,97036.84
2023-01-19T04:45:59.147Z,97034.28
2023-01-19T04:48:27.309Z,97038.44
2023-01-19T04:50:55.588Z,97037.59
2023-01-19T04:53:23.690Z,97030.91
2023-01-19T04:55:54.916Z,97025.69
2023-01-19T04:58:23.455Z,97044.19
2023-01-19T05:00:52.426Z,97039.09
2023-01-19T05:03:21.956Z,97043.22
2023-01-19T05:05:50.008Z,97044.84
2023-01-19T05:08:18.046Z,97046.50
2023-01-19T05:10:46.157Z,97054.94
2023-01-19T05:13:14.137Z,97052.34
2023-01-19T05:15:42.167Z,97055.69
2023-01-19T05:18:10.372Z,97049.00
2023-01-19T05:20:41.350Z,97053.38
2023-01-19T05:23:09.438Z,97048.38
2023-01-19T05:25:37.599Z,97061.00
2023-01-19T05:28:05.854Z,97061.00
2023-01-19T05:30:34.280Z,97061.00
2023-01-19T05:33:02.618Z,97061.91
2023-01-19T05:35:36.114Z,97061.84
2023-01-19T05:38:06.415Z,97065.16
2023-01-19T05:40:34.598Z,97054.91
2023-01-19T05:43:05.510Z,97060.78
2023-01-19T05:45:34.043Z,97060.72
2023-01-19T05:48:02.455Z,97058.16
2023-01-19T05:50:30.741Z,97066.47
2023-01-19T05:53:00.343Z,97059.78
2023-01-19T05:55:31.190Z,97071.50
2023-01-19T05:57:59.495Z,97068.22
2023-01-19T06:00:27.740Z,97071.59
2023-01-19T06:02:55.869Z,97059.03
2023-01-19T06:05:24.109Z,97066.78
2023-01-19T06:07:52.795Z,97065.09
2023-01-19T06:10:21.193Z,97066.72
2023-01-19T06:12:52.061Z,97065.09
2023-01-19T06:15:21.040Z,97070.13
2023-01-19T06:17:49.360Z,97069.28
2023-01-19T06:20:18.506Z,97066.78
2023-01-19T06:22:47.808Z,97068.63
2023-01-19T06:25:16.443Z,97075.41
2023-01-19T06:27:47.692Z,97089.50
2023-01-19T06:30:17.771Z,97088.63
2023-01-19T06:32:45.873Z,97093.53
2023-01-19T06:35:13.979Z,97085.78
2023-01-19T06:37:42.800Z,97090.75
2023-01-19T06:40:14.313Z,97090.66
2023-01-19T06:42:43.361Z,97098.09
2023-01-19T06:45:12.127Z,97100.50
2023-01-19T06:47:41.777Z,97100.50
2023-01-19T06:50:11.447Z,97097.16
2023-01-19T06:52:42.852Z,97093.19
2023-01-19T06:55:12.228Z,97098.09
2023-01-19T06:57:40.487Z,97097.25
2023-01-19T07:00:10.099Z,97104.09
2023-01-19T07:02:38.618Z,97104.19
2023-01-19T07:05:09.335Z,97103.28
2023-01-19T07:07:39.891Z,97102.38
2023-01-19T07:10:09.214Z,97103.16
2023-01-19T07:12:37.674Z,97089.00
2023-01-19T07:15:07.269Z,97103.69
2023-01-19T07:17:35.676Z,97106.22
2023-01-19T07:20:04.030Z,97111.06
2023-01-19T07:22:34.383Z,97110.94
2023-01-19T07:25:02.464Z,97105.88
2023-01-19T07:27:30.622Z,97112.53
2023-01-19T07:29:58.668Z,97111.09
2023-01-19T07:32:27.641Z,97113.69
2023-01-19T07:34:55.813Z,97117.09
2023-01-19T07:37:24.013Z,97125.53
2023-01-19T07:39:53.912Z,97122.38
2023-01-19T07:42:22.213Z,97121.53
2023-01-19T07:44:53.724Z,97127.34
2023-01-19T07:47:22.078Z,97127.44
2023-01-19T07:49:50.542Z,97121.78
2023-01-19T07:52:18.744Z,97120.03
2023-01-19T07:54:46.633Z,97130.06
2023-01-19T07:57:16.412Z,97134.09
2023-01-19T07:59:44.522Z,97134.06
2023-01-19T08:02:12.805Z,97141.56
2023-01-19T08:04:41.333Z,97142.44
2023-01-19T08:07:10.164Z,97149.97
2023-01-19T08:09:38.553Z,97147.59
2023-01-19T08:12:07.202Z,97155.13
2023-01-19T08:14:36.607Z,97160.22
2023-01-19T08:17:05.291Z,97158.47
2023-01-19T08:19:33.266Z,97147.53
2023-01-19T08:22:01.261Z,97145.88
2023-01-19T08:24:29.718Z,97166.22
2023-01-19T08:27:02.079Z,97176.34
2023-01-19T08:29:30.862Z,97171.38
2023-01-19T08:32:03.208Z,97168.91
2023-01-19T08:34:32.145Z,97165.59
2023-01-19T08:37:00.643Z,97166.47
2023-01-19T08:39:28.745Z,97174.94
2023-01-19T08:41:58.223Z,97167.50
2023-01-19T08:44:26.255Z,97159.84
2023-01-19T08:46:54.332Z,97167.59
2023-01-19T08:49:23.603Z,97166.78
2023-01-19T08:51:51.745Z,97173.72
2023-01-19T08:54:21.693Z,97182.94
2023-01-19T08:56:49.630Z,97181.38
2023-01-19T08:59:18.121Z,97186.44
2023-01-19T09:01:46.297Z,97193.34
2023-01-19T09:04:14.626Z,97188.34
2023-01-19T09:06:44.105Z,97195.13
2023-01-19T09:09:12.045Z,97194.38
2023-01-19T09:11:40.054Z,97201.22
2023-01-19T09:14:08.462Z,97197.16
2023-01-19T09:16:36.934Z,97193.81
2023-01-19T09:19:05.125Z,97203.25
2023-01-19T09:21:33.287Z,97201.63
2023-01-19T09:24:02.666Z,97197.50
2023-01-19T09:26:33.057Z,97200.06
2023-01-19T09:29:01.632Z,97202.63
2023-01-19T09:31:29.617Z,97203.50
2023-01-19T09:33:57.687Z,97206.03
2023-01-19T09:36:26.292Z,97203.53
2023-01-19T09:38:54.533Z,97214.50
2023-01-19T09:41:26.432Z,97220.44
2023-01-19T09:43:59.598Z,97205.31
2023-01-19T09:46:35.397Z,97198.59
2023-01-19T09:49:08.347Z,97211.25
2023-01-19T09:51:40.928Z,97204.56
2023-01-19T09:54:14.936Z,97207.94
2023-01-19T09:56:45.642Z,97196.97
2023-01-19T09:59:20.832Z,97197.06
2023-01-19T10:02:03.179Z,97197.06
2023-01-19T10:04:36.162Z,97191.22
2023-01-19T10:07:24.896Z,97192.03
2023-01-19T10:10:08.444Z,97189.50
2023-01-19T10:12:52.120Z,97197.94
2023-01-19T10:15:33.196Z,97193.72
2023-01-19T10:18:13.633Z,97189.56
2023-01-19T10:20:49.808Z,97191.31
2023-01-19T10:23:27.044Z,97192.22
2023-01-19T10:25:56.634Z,97184.69
2023-01-19T10:28:27.978Z,97195.66
2023-01-19T10:30:57.505Z,97188.91
2023-01-19T10:33:26.085Z,97188.91
2023-01-19T10:35:54.438Z,97184.69
2023-01-19T10:38:25.993Z,97189.75
2023-01-19T10:41:04.691Z,97183.03
2023-01-19T10:43:45.704Z,97199.03
2023-01-19T10:46:24.658Z,97191.44
2023-01-19T10:48:55.280Z,97188.09
2023-01-19T10:51:23.707Z,97192.28
2023-01-19T10:53:58.301Z,97192.31
2023-01-19T10:56:29.405Z,97190.63
2023-01-19T10:59:01.053Z,97188.06
2023-01-19T11:01:30.726Z,97191.47
2023-01-19T11:04:05.795Z,97186.38
2023-01-19T11:06:36.047Z,97183.84
2023-01-19T11:09:13.922Z,97180.47
2023-01-19T11:11:47.771Z,97193.09
2023-01-19T11:14:23.471Z,97187.19
2023-01-19T11:16:56.429Z,97199.03
2023-01-19T11:19:30.844Z,97184.66
2023-01-19T11:22:21.968Z,97177.84
2023-01-19T11:24:52.532Z,97177.81
2023-01-19T11:27:21.800Z,97175.22
2023-01-19T11:30:02.874Z,97160.00
2023-01-19T11:32:33.699Z,97167.47
2023-01-19T11:35:02.148Z,97160.69
2023-01-19T11:37:34.711Z,97164.97
2023-01-19T11:40:05.096Z,97162.47
2023-01-19T11:42:37.330Z,97165.78
2023-01-19T11:45:13.752Z,97165.75
2023-01-19T11:47:45.876Z,97150.59
2023-01-19T11:50:30.915Z,97155.75
2023-01-19T11:53:03.042Z,97154.88
2023-01-19T11:55:39.331Z,97152.31
2023-01-19T11:58:07.788Z,97146.31
2023-01-19T12:00:41.360Z,97147.22
2023-01-19T12:03:16.814Z,97146.31
2023-01-19T12:05:49.860Z,97153.94
2023-01-19T12:08:22.408Z,97155.63
2023-01-19T12:10:55.306Z,97146.31
2023-01-19T12:13:25.753Z,97150.47
2023-01-19T12:15:59.410Z,97142.84
2023-01-19T12:18:31.831Z,97148.66
2023-01-19T12:21:02.883Z,97136.81
2023-01-19T12:23:47.951Z,97150.34
2023-01-19T12:26:29.721Z,97150.38
2023-01-19T12:29:02.111Z,97147.00
2023-01-19T12:31:32.196Z,97145.28
2023-01-19T12:34:36.332Z,97145.34
2023-01-19T12:37:06.823Z,97147.91
2023-01-19T12:39:36.341Z,97143.81
2023-01-19T12:42:14.922Z,97142.13
2023-01-19T12:44:44.884Z,97151.41
2023-01-19T12:47:24.479Z,97157.38
2023-01-19T12:49:56.415Z,97153.94
2023-01-19T12:52:30.989Z,97161.63
2023-01-19T12:55:03.083Z,97141.41
2023-01-19T12:57:35.544Z,97161.63
2023-01-19T13:00:09.666Z,97152.34
2023-01-19T13:02:48.701Z,97146.38
2023-01-19T13:05:52.921Z,97139.63
2023-01-19T13:08:26.607Z,97136.25
2023-01-19T13:11:14.266Z,97139.59
2023-01-19T13:13:44.122Z,97117.72
2023-01-19T13:17:01.142Z,97142.25
2023-01-19T13:19:47.250Z,97145.63
2023-01-19T13:22:57.869Z,97142.19
2023-01-19T13:25:32.119Z,97140.53
2023-01-19T13:28:01.221Z,97138.81
2023-01-19T13:30:31.262Z,97147.19
2023-01-19T13:33:07.409Z,97138.72
2023-01-19T13:35:37.293Z,97141.25
2023-01-19T13:38:06.794Z,97142.06
2023-01-19T13:40:40.134Z,97141.25
2023-01-19T13:43:17.514Z,97136.22
2023-01-19T13:45:53.144Z,97146.38
2023-01-19T13:48:24.269Z,97139.66
2023-01-19T13:51:05.966Z,97143.84
2023-01-19T13:53:34.566Z,97145.50
2023-01-19T13:56:21.031Z,97140.38
2023-01-19T13:59:01.863Z,97137.91
2023-01-19T14:01:31.673Z,97144.59
2023-01-19T14:04:00.742Z,97145.53
2023-01-19T14:06:38.887Z,97138.72
2023-01-19T14:09:19.935Z,97145.53
2023-01-19T14:12:05.747Z,97148.09
2023-01-19T14:14:34.824Z,97152.31
2023-01-19T14:17:04.101Z,97152.31
2023-01-19T14:19:49.218Z,97151.50
2023-01-19T14:22:20.660Z,97158.28
2023-01-19T14:24:49.439Z,97155.75
2023-01-19T14:27:26.610Z,97152.38
2023-01-19T14:30:15.167Z,97155.78
2023-01-19T14:32:47.868Z,97146.41
2023-01-19T14:35:26.025Z,97150.72
2023-01-19T14:37:55.401Z,97151.56
2023-01-19T14:40:24.678Z,97154.13
2023-01-19T14:42:55.678Z,97159.19
2023-01-19T14:45:30.007Z,97161.72
2023-01-19T14:48:01.969Z,97163.44
2023-01-19T14:50:34.320Z,97172.75
2023-01-19T14:53:11.009Z,97166.78
2023-01-19T14:55:47.786Z,97164.28
2023-01-19T14:58:17.496Z,97161.75
2023-01-19T15:00:46.868Z,97167.63
2023-01-19T15:03:15.527Z,97164.31
2023-01-19T15:05:51.144Z,97168.50
2023-01-19T15:08:26.731Z,97174.38
2023-01-19T15:11:00.814Z,97177.78
2023-01-19T15:13:29.541Z,97167.66
2023-01-19T15:15:58.437Z,97172.75
2023-01-19T15:18:28.283Z,97171.09
2023-01-19T15:21:02.977Z,97171.09
2023-01-19T15:23:33.787Z,97165.16
2023-01-19T15:26:05.620Z,97174.44
2023-01-19T15:28:34.369Z,97179.50
2023-01-19T15:31:03.054Z,97183.75
2023-01-19T15:33:32.139Z,97177.91
2023-01-19T15:36:01.664Z,97166.94
2023-01-19T15:38:30.277Z,97177.09
2023-01-19T15:41:00.206Z,97183.84
2023-01-19T15:43:29.424Z,97181.31
2023-01-19T15:46:01.892Z,97180.47
2023-01-19T15:48:30.268Z,97169.50
2023-01-19T15:50:58.900Z,97176.25
2023-01-19T15:53:28.302Z,97178.78
2023-01-19T15:55:57.188Z,97178.78
2023-01-19T15:58:27.096Z,97179.66
2023-01-19T16:00:57.056Z,97183.03
2023-01-19T16:03:25.924Z,97181.31
2023-01-19T16:05:54.867Z,97183.84
2023-01-19T16:08:23.405Z,97179.63
2023-01-19T16:10:52.390Z,97192.31
2023-01-19T16:13:20.571Z,97188.91
2023-01-19T16:15:50.723Z,97181.31
2023-01-19T16:18:19.372Z,97175.41
2023-01-19T16:20:47.561Z,97188.00
2023-01-19T16:23:16.136Z,97188.03
2023-01-19T16:25:45.138Z,97188.84
2023-01-19T16:28:13.929Z,97188.84
2023-01-19T16:30:42.060Z,97194.75
2023-01-19T16:33:13.869Z,97193.03
2023-01-19T16:35:42.490Z,97193.00
2023-01-19T16:38:10.683Z,97191.34
2023-01-19T16:40:38.817Z,97190.53
2023-01-19T16:43:07.160Z,97191.34
2023-01-19T16:45:35.333Z,97193.06
2023-01-19T16:48:04.894Z,97193.91
2023-01-19T16:50:35.361Z,97189.72
2023-01-19T16:53:05.659Z,97193.91
2023-01-19T16:55:33.641Z,97196.41
2023-01-19T16:58:02.005Z,97203.19
2023-01-19T17:00:32.127Z,97201.50
2023-01-19T17:03:00.762Z,97196.44
2023-01-19T17:05:29.304Z,97203.19
2023-01-19T17:08:03.563Z,97207.38
2023-01-19T17:10:32.116Z,97202.34
2023-01-19T17:13:01.727Z,97205.72
2023-01-19T17:15:32.392Z,97206.59
2023-01-19T17:18:01.973Z,97209.97
2023-01-19T17:20:34.473Z,97205.78
2023-01-19T17:23:05.069Z,97214.22
2023-01-19T17:25:37.278Z,97211.66
2023-01-19T17:28:06.748Z,97201.56
2023-01-19T17:30:36.771Z,97210.00
2023-01-19T17:33:06.071Z,97208.28
2023-01-19T17:35:36.444Z,97213.34
2023-01-19T17:38:06.727Z,97219.28
2023-01-19T17:40:36.144Z,97222.66
2023-01-19T17:43:04.975Z,97232.78
2023-01-19T17:45:33.616Z,97223.50
2023-01-19T17:48:03.671Z,97210.00
2023-01-19T17:50:38.466Z,97206.59
2023-01-19T17:53:14.927Z,97230.22
2023-01-19T17:55:49.594Z,97233.59
2023-01-19T17:58:25.027Z,97235.31
2023-01-19T18:00:54.498Z,97228.53
2023-01-19T18:03:26.861Z,97231.91
2023-01-19T18:05:57.253Z,97234.44
2023-01-19T18:08:26.740Z,97236.13
2023-01-19T18:10:55.979Z,97235.28
2023-01-19T18:13:25.284Z,97241.19
2023-01-19T18:15:54.758Z,97245.41
2023-01-19T18:18:23.708Z,97241.19
2023-01-19T18:20:52.547Z,97237.81
2023-01-19T18:23:21.236Z,97230.22
2023-01-19T18:25:51.065Z,97236.13
2023-01-19T18:28:19.625Z,97231.91
2023-01-19T18:30:48.463Z,97235.28
2023-01-19T18:33:16.757Z,97239.50
2023-01-19T18:35:45.502Z,97234.44
2023-01-19T18:38:13.911Z,97242.88
2023-01-19T18:40:42.396Z,97235.28
2023-01-19T18:43:13.869Z,97241.19
2023-01-19T18:45:43.256Z,97236.13
2023-01-19T18:48:11.821Z,97242.84
2023-01-19T18:50:40.301Z,97245.41
2023-01-19T18:53:08.664Z,97237.81
2023-01-19T18:55:36.989Z,97231.91
2023-01-19T18:58:07.305Z,97241.19
2023-01-19T19:00:37.483Z,97247.91
2023-01-19T19:03:28.499Z,97240.34
2023-01-19T19:06:03.973Z,97246.25
2023-01-19T19:08:32.652Z,97238.66
2023-01-19T19:11:00.681Z,97243.72
2023-01-19T19:13:30.032Z,97238.63
2023-01-19T19:16:05.658Z,97238.66
2023-01-19T19:18:35.971Z,97235.28
2023-01-19T19:21:05.917Z,97246.25
2023-01-19T19:23:34.148Z,97242.88
2023-01-19T19:26:07.623Z,97251.31
2023-01-19T19:28:37.127Z,97237.81
2023-01-19T19:31:09.981Z,97248.78
2023-01-19T19:37:25.204Z,97245.38
2023-01-19T19:39:53.377Z,97251.28
2023-01-19T19:42:23.227Z,97250.47
2023-01-19T19:44:55.088Z,97242.00
2023-01-19T19:47:28.399Z,97248.75
2023-01-19T19:49:56.714Z,97247.09
2023-01-19T19:52:25.083Z,97255.50
2023-01-19T19:54:53.796Z,97254.69
2023-01-19T19:57:24.333Z,97251.31
2023-01-19T19:59:52.799Z,97257.22
2023-01-19T20:02:21.294Z,97255.50
2023-01-19T20:04:50.980Z,97258.88
2023-01-19T20:07:19.601Z,97258.03
2023-01-19T20:09:47.994Z,97258.88
2023-01-19T20:12:16.278Z,97269.03
2023-01-19T20:14:44.268Z,97260.56
2023-01-19T20:17:12.525Z,97261.41
2023-01-19T20:19:40.791Z,97263.94
2023-01-19T20:22:10.611Z,97245.38
2023-01-19T20:24:38.804Z,97265.63
2023-01-19T20:27:07.205Z,97269.84
2023-01-19T20:29:39.890Z,97271.53
2023-01-19T20:32:08.183Z,97272.38
2023-01-19T20:34:36.752Z,97273.19
2023-01-19T20:37:07.014Z,97277.44
2023-01-19T20:39:37.287Z,97270.66
2023-01-19T20:42:09.715Z,97277.47
2023-01-19T20:44:40.533Z,97273.22
2023-01-19T20:47:09.759Z,97273.22
2023-01-19T20:49:38.291Z,97271.53
2023-01-19T20:52:07.127Z,97269.00
2023-01-19T20:54:37.014Z,97264.78
2023-01-19T20:57:05.182Z,97278.28
2023-01-19T20:59:36.959Z,97282.47
2023-01-19T21:02:08.358Z,97274.88
2023-01-19T21:04:36.586Z,97283.31
2023-01-19T21:07:05.840Z,97285.00
2023-01-19T21:09:33.994Z,97285.00
2023-01-19T21:12:08.067Z,97288.41
2023-01-19T21:14:36.309Z,97292.63
2023-01-19T21:17:04.935Z,97293.47
2023-01-19T21:19:33.492Z,97298.50
2023-01-19T21:22:02.237Z,97296.00
2023-01-19T21:24:30.632Z,97285.03
2023-01-19T21:26:58.842Z,97298.50
2023-01-19T21:29:28.742Z,97304.41
2023-01-19T21:31:57.995Z,97304.41
2023-01-19T21:34:26.367Z,97289.22
2023-01-19T21:36:54.271Z,97299.38
2023-01-19T21:39:22.259Z,97302.72
2023-01-19T21:41:50.518Z,97307.78
2023-01-19T21:44:19.051Z,97295.97
2023-01-19T21:46:49.260Z,97307.75
2023-01-19T21:49:19.978Z,97301.03
2023-01-19T21:51:50.640Z,97312.84
2023-01-19T21:54:19.558Z,97303.56
2023-01-19T21:56:47.977Z,97299.34
2023-01-19T21:59:20.167Z,97295.09
2023-01-19T22:01:50.188Z,97304.41
2023-01-19T22:04:18.415Z,97311.97
2023-01-19T22:06:46.966Z,97317.84
2023-01-19T22:09:15.030Z,97314.50
2023-01-19T22:11:43.215Z,97318.75
2023-01-19T22:14:11.664Z,97321.25
2023-01-19T22:16:40.173Z,97322.91
2023-01-19T22:19:14.555Z,97327.09
2023-01-19T22:21:42.812Z,97330.47
2023-01-19T22:24:10.878Z,97330.47
2023-01-19T22:26:38.826Z,97327.97
2023-01-19T22:29:11.316Z,97334.72
2023-01-19T22:31:40.562Z,97327.97
2023-01-19T22:34:10.943Z,97327.16
2023-01-19T22:36:39.504Z,97321.25
2023-01-19T22:39:10.091Z,97319.56
2023-01-19T22:41:39.769Z,97325.47
2023-01-19T22:44:09.764Z,97315.34
2023-01-19T22:46:38.784Z,97317.91
2023-01-19T22:49:08.316Z,97325.50
2023-01-19T22:51:38.022Z,97317.00
2023-01-19T22:54:06.607Z,97328.81
2023-01-19T22:56:36.563Z,97327.19
2023-01-19T22:59:05.613Z,97321.28
2023-01-19T23:01:35.594Z,97324.66
2023-01-19T23:04:05.753Z,97322.97
2023-01-19T23:06:35.372Z,97327.16
2023-01-19T23:09:07.567Z,97320.44
2023-01-19T23:11:37.971Z,97327.19
2023-01-19T23:14:07.472Z,97325.53
2023-01-19T23:16:36.088Z,97308.63
2023-01-19T23:19:05.631Z,97315.38
2023-01-19T23:21:34.297Z,97320.47
2023-01-19T23:24:05.573Z,97323.84
2023-01-19T23:26:38.107Z,97323.81
2023-01-19T23:29:08.831Z,97328.03
2023-01-19T23:31:38.832Z,97327.19
2023-01-19T23:34:08.249Z,97322.09
2023-01-19T23:36:39.121Z,97314.53
2023-01-19T23:39:13.515Z,97323.81
2023-01-19T23:41:41.513Z,97325.53
2023-01-19T23:44:09.768Z,97329.75
2023-01-19T23:46:37.973Z,97329.72
2023-01-19T23:49:06.458Z,97336.47
2023-01-19T23:51:34.779Z,97333.97
2023-01-19T23:54:02.925Z,97340.69
2023-01-19T23:56:34.249Z,97334.78
2023-01-19T23:59:04.263Z,97340.69
